Onweer radar Meer informatie blitzortung!


Regen radar Meer informatie rain snow radar


Bezoek ook deze websites:

Template documentation
and downloads

And another site


Het weer levert geen direct gevaar op.    Er zijn geen waarschuwingen afgegeven.

Select another period ( hide this area )

Eenheden Periode Custom range Directly to
Metrisch Engels Beide
Dagelijkse Wekelijkse Maandelijkse Jaarlijkse
use both date-selectors for a custom range
previous Dag
With this date

WeatherUnderground graphs for this period ( click here )



Warning: Division by zero in /var/www/vhosts/meteotuikwerd.nl/httpdocs/weather28/wu/WU-History4.php on line 835
Dagelijkse Samenvatting Donderdag Feb 27 2020
Tijd Temp. ( °C ) Dew pt. ( °C ) Wind ( km/h ) van Windvlaag ( km/h ) Luchtdruk ( hPa ) Humid.( % ) Rainrate ( cm ) Zonneschijn ( W/m2 )
Hoog2,6 1,4 14,3 Zuiden ( 204/525 ) 25,7 1001,2 93 0,30 0
Gemiddeld1,7 0,5 8,5 ZZW #21/62 14,0 1001,0 92 0,60 NAN #0/62
Laag0,8 -0,4 3,2   6,4 1000,6 91 -  
Dagelijkse Tabular details for Donderdag Feb 27 2020
Tijd Temp. ( °C ) Dew pt. ( °C ) Wind ( km/h ) van Windvlaag ( km/h ) Luchtdruk ( hPa ) Humid.( % ) Rainrate ( cm ) Zonneschijn ( W/m2 )
00:00 2,6 1,4 7,9 ZW 11,3 1001,2 92 0,30 -
00:05 2,6 1,4 3,2 ZW 12,9 1001,2 92 0,30 -
00:10 2,6 1,4 7,9 ZW 11,3 1001,2 92 0,30 -
00:15 2,6 1,3 13,0 ZZW 14,5 1001,2 91 0,30 -
00:20 2,4 1,1 7,9 Zuiden 14,5 1001,2 91 0,30 -
00:25 2,3 1,0 7,9 ZZW 17,7 1001,2 91 0,30 -
00:30 2,3 1,1 13,0 ZZO 16,1 1001,2 92 0,30 -
00:35 2,3 1,1 6,4 Zuiden 12,9 1001,2 92 0,30 -
00:40 2,3 1,0 7,9 ZZO 9,7 1000,9 91 0,30 -
00:45 2,2 0,9 6,4 Zuiden 11,3 1000,9 91 0,30 -
00:50 2,2 0,9 4,7 Zuiden 6,4 1000,9 91 - -
00:55 2,1 0,8 9,7 ZZO 9,7 1000,9 91 - -
01:00 1,9 0,6 9,7 Zuiden 11,3 1000,9 91 - -
01:05 1,8 0,5 9,7 Zuiden 12,9 1000,9 91 - -
01:10 1,7 0,4 6,4 Zuiden 9,7 1000,9 91 - -
01:15 1,7 0,4 6,4 Zuiden 11,3 1000,9 91 - -
01:20 1,6 0,3 6,4 ZZW 11,3 1000,9 91 - -
01:25 1,5 0,2 4,7 ZW 16,1 1001,2 91 - -
01:30 1,5 0,3 4,7 ZW 14,5 1001,2 92 - -
01:35 1,6 0,4 6,4 Westen 11,3 1001,2 92 0,30 -
01:40 1,7 0,5 4,7 ZW 14,5 1000,9 92 0,30 -
01:45 1,8 0,6 3,2 ZZW 9,7 1001,2 92 0,30 -
01:50 1,8 0,6 11,1 ZW 12,9 1000,9 92 0,30 -
01:55 1,8 0,6 6,4 ZZW 16,1 1000,9 92 0,30 -
02:00 1,8 0,6 7,9 ZW 14,5 1000,9 92 0,30 -
02:05 1,8 0,6 4,7 ZW 12,9 1001,2 92 0,30 -
02:10 1,8 0,6 11,1 ZZW 11,3 1001,2 92 0,30 -
02:15 1,8 0,6 11,1 Zuiden 16,1 1000,9 92 0,30 -
02:20 1,8 0,6 6,4 ZW 14,5 1001,2 92 0,30 -
02:25 1,8 0,6 7,9 ZW 14,5 1001,2 92 0,30 -
02:30 1,8 0,6 7,9 ZZW 14,5 1000,9 92 0,30 -
02:35 1,8 0,6 6,4 Zuiden 11,3 1001,2 92 - -
02:40 1,8 0,6 13,0 ZZW 16,1 1000,9 92 - -
02:45 1,8 0,6 6,4 ZZW 14,5 1001,2 92 - -
02:50 1,8 0,6 6,4 WZW 11,3 1001,2 92 - -
02:55 1,8 0,6 11,1 Zuiden 12,9 1000,9 92 - -
03:00 1,8 0,6 11,1 ZZW 11,3 1000,9 92 - -
03:05 1,8 0,6 9,7 ZZW 11,3 1000,9 92 - -
03:10 1,7 0,5 6,4 WZW 11,3 1000,9 92 - -
03:15 1,6 0,4 9,7 ZW 16,1 1000,9 92 - -
03:20 1,6 0,4 7,9 ZZW 9,7 1000,9 92 - -
03:25 1,6 0,4 7,9 ZW 14,5 1000,9 92 - -
03:30 1,5 0,3 4,7 ZZW 11,3 1001,2 92 - -
03:35 1,5 0,3 4,7 ZZW 11,3 1001,2 92 - -
03:40 1,4 0,2 14,3 Zuiden 19,3 1000,9 92 - -
03:45 1,4 0,2 7,9 ZZW 16,1 1000,9 92 - -
03:50 1,4 0,2 13,0 Zuiden 17,7 1000,9 92 - -
03:55 1,3 0,1 14,3 Zuiden 25,7 1000,9 92 - -
04:00 1,3 0,1 11,1 Zuiden 24,1 1001,2 92 - -
04:05 1,3 0,1 13,0 ZZW 20,9 1000,9 92 - -
04:10 1,2 0,0 6,4 ZZW 14,5 1000,9 92 - -
04:15 1,2 0,0 6,4 ZZW 16,1 1000,9 92 - -
04:20 1,1 -0,1 9,7 Zuiden 11,3 1000,9 92 - -
04:25 1,1 -0,1 7,9 ZZW 11,3 1000,9 92 - -
04:30 1,0 -0,2 7,9 Zuiden 14,5 1000,9 92 - -
04:35 0,9 -0,3 6,4 ZZW 16,1 1000,6 92 - -
04:40 0,9 -0,3 7,9 Zuiden 12,9 1000,9 92 - -
04:45 0,9 -0,1 14,3 Zuiden 19,3 1000,6 93 - -
04:50 0,9 -0,1 14,3 Zuiden 17,7 1000,6 93 - -
04:55 0,9 -0,3 9,7 ZW 14,5 1000,9 92 - -
05:00 0,8 -0,4 11,1 ZZW 17,7 1000,9 92 - -
05:05 0,8 -0,4 11,1 Zuiden 14,5 1000,6 92 - -
Dagelijkse Samenvatting Donderdag Feb 27 2020
Tijd Temp. ( °C ) Dew pt. ( °C ) Wind ( km/h ) van Windvlaag ( km/h ) Luchtdruk ( hPa ) Humid.( % ) Rainrate ( cm ) Zonneschijn ( W/m2 )
Hoog2,6 1,4 14,3 Zuiden ( 204/525 ) 25,7 1001,2 93 0,30 0
Gemiddeld1,7 0,5 8,5 ZZW #21/62 14,0 1001,0 92 0,60 NAN #0/62
Laag0,8 -0,4 3,2   6,4 1000,6 91 -  
Dagelijkse Tabular details for Donderdag Feb 27 2020
Tijd Temp. ( °C ) Dew pt. ( °C ) Wind ( km/h ) van Windvlaag ( km/h ) Luchtdruk ( hPa ) Humid.( % ) Rainrate ( cm ) Zonneschijn ( W/m2 )
00:00 2,6 1,4 7,9 ZW 11,3 1001,2 92 0,30 -
00:05 2,6 1,4 3,2 ZW 12,9 1001,2 92 0,30 -
00:10 2,6 1,4 7,9 ZW 11,3 1001,2 92 0,30 -
00:15 2,6 1,3 13,0 ZZW 14,5 1001,2 91 0,30 -
00:20 2,4 1,1 7,9 Zuiden 14,5 1001,2 91 0,30 -
00:25 2,3 1,0 7,9 ZZW 17,7 1001,2 91 0,30 -
00:30 2,3 1,1 13,0 ZZO 16,1 1001,2 92 0,30 -
00:35 2,3 1,1 6,4 Zuiden 12,9 1001,2 92 0,30 -
00:40 2,3 1,0 7,9 ZZO 9,7 1000,9 91 0,30 -
00:45 2,2 0,9 6,4 Zuiden 11,3 1000,9 91 0,30 -
00:50 2,2 0,9 4,7 Zuiden 6,4 1000,9 91 - -
00:55 2,1 0,8 9,7 ZZO 9,7 1000,9 91 - -
01:00 1,9 0,6 9,7 Zuiden 11,3 1000,9 91 - -
01:05 1,8 0,5 9,7 Zuiden 12,9 1000,9 91 - -
01:10 1,7 0,4 6,4 Zuiden 9,7 1000,9 91 - -
01:15 1,7 0,4 6,4 Zuiden 11,3 1000,9 91 - -
01:20 1,6 0,3 6,4 ZZW 11,3 1000,9 91 - -
01:25 1,5 0,2 4,7 ZW 16,1 1001,2 91 - -
01:30 1,5 0,3 4,7 ZW 14,5 1001,2 92 - -
01:35 1,6 0,4 6,4 Westen 11,3 1001,2 92 0,30 -
01:40 1,7 0,5 4,7 ZW 14,5 1000,9 92 0,30 -
01:45 1,8 0,6 3,2 ZZW 9,7 1001,2 92 0,30 -
01:50 1,8 0,6 11,1 ZW 12,9 1000,9 92 0,30 -
01:55 1,8 0,6 6,4 ZZW 16,1 1000,9 92 0,30 -
02:00 1,8 0,6 7,9 ZW 14,5 1000,9 92 0,30 -
02:05 1,8 0,6 4,7 ZW 12,9 1001,2 92 0,30 -
02:10 1,8 0,6 11,1 ZZW 11,3 1001,2 92 0,30 -
02:15 1,8 0,6 11,1 Zuiden 16,1 1000,9 92 0,30 -
02:20 1,8 0,6 6,4 ZW 14,5 1001,2 92 0,30 -
02:25 1,8 0,6 7,9 ZW 14,5 1001,2 92 0,30 -
02:30 1,8 0,6 7,9 ZZW 14,5 1000,9 92 0,30 -
02:35 1,8 0,6 6,4 Zuiden 11,3 1001,2 92 - -
02:40 1,8 0,6 13,0 ZZW 16,1 1000,9 92 - -
02:45 1,8 0,6 6,4 ZZW 14,5 1001,2 92 - -
02:50 1,8 0,6 6,4 WZW 11,3 1001,2 92 - -
02:55 1,8 0,6 11,1 Zuiden 12,9 1000,9 92 - -
03:00 1,8 0,6 11,1 ZZW 11,3 1000,9 92 - -
03:05 1,8 0,6 9,7 ZZW 11,3 1000,9 92 - -
03:10 1,7 0,5 6,4 WZW 11,3 1000,9 92 - -
03:15 1,6 0,4 9,7 ZW 16,1 1000,9 92 - -
03:20 1,6 0,4 7,9 ZZW 9,7 1000,9 92 - -
03:25 1,6 0,4 7,9 ZW 14,5 1000,9 92 - -
03:30 1,5 0,3 4,7 ZZW 11,3 1001,2 92 - -
03:35 1,5 0,3 4,7 ZZW 11,3 1001,2 92 - -
03:40 1,4 0,2 14,3 Zuiden 19,3 1000,9 92 - -
03:45 1,4 0,2 7,9 ZZW 16,1 1000,9 92 - -
03:50 1,4 0,2 13,0 Zuiden 17,7 1000,9 92 - -
03:55 1,3 0,1 14,3 Zuiden 25,7 1000,9 92 - -
04:00 1,3 0,1 11,1 Zuiden 24,1 1001,2 92 - -
04:05 1,3 0,1 13,0 ZZW 20,9 1000,9 92 - -
04:10 1,2 0,0 6,4 ZZW 14,5 1000,9 92 - -
04:15 1,2 0,0 6,4 ZZW 16,1 1000,9 92 - -
04:20 1,1 -0,1 9,7 Zuiden 11,3 1000,9 92 - -
04:25 1,1 -0,1 7,9 ZZW 11,3 1000,9 92 - -
04:30 1,0 -0,2 7,9 Zuiden 14,5 1000,9 92 - -
04:35 0,9 -0,3 6,4 ZZW 16,1 1000,6 92 - -
04:40 0,9 -0,3 7,9 Zuiden 12,9 1000,9 92 - -
04:45 0,9 -0,1 14,3 Zuiden 19,3 1000,6 93 - -
04:50 0,9 -0,1 14,3 Zuiden 17,7 1000,6 93 - -
04:55 0,9 -0,3 9,7 ZW 14,5 1000,9 92 - -
05:00 0,8 -0,4 11,1 ZZW 17,7 1000,9 92 - -
05:05 0,8 -0,4 11,1 Zuiden 14,5 1000,6 92 - -

Download your copy of this data-set  here

Our weather-data as stored at Weather Underground. Script ontwikkeld door Jim McMurry. Aangepast voor de template door Leuven-Template.eu

U vindt ons ook hier:

UK Metoffice

Weather Underground